Terminal Aerodrome Forecast
Issued by NWS Twin Cities, MN

Home | Current Version | Previous Version | Graphics & Text | Print | Product List | Glossary On
Versions: 1 2 3 4 5 6 7 8 9 10 11 12 13 14 15 16 17
000
FTUS43 KMPX 241721
TAFSTC
TAF
KSTC 241721Z 2418/2518 16014G22KT P6SM OVC012
     FM250300 15010KT 5SM -RASN BR OVC009
     FM250500 15008KT 2SM -SN OVC007
     FM250700 15010KT 6SM -SN OVC007
     FM251100 23012KT P6SM SCT008 OVC015
     FM251500 28018G28KT P6SM SCT015 BKN025=

USA.gov is the U.S. government's official web portal to all federal, state and local government web resources and services.